sensor_id;sensor_type;location;lat;lon;timestamp;P1;durP1;ratioP1;P2;durP2;ratioP2
13171;SDS011;6651;53.200;10.432;2023-05-02T00:02:11;4.55;;;2.40;;
13171;SDS011;6651;53.200;10.432;2023-05-02T00:04:37;4.97;;;2.90;;
13171;SDS011;6651;53.200;10.432;2023-05-02T00:07:04;4.07;;;3.10;;
13171;SDS011;6651;53.200;10.432;2023-05-02T00:09:30;6.25;;;3.10;;
13171;SDS011;6651;53.200;10.432;2023-05-02T00:11:56;6.63;;;3.47;;
13171;SDS011;6651;53.200;10.432;2023-05-02T00:14:23;4.40;;;3.15;;
13171;SDS011;6651;53.200;10.432;2023-05-02T00:16:49;6.25;;;3.42;;
13171;SDS011;6651;53.200;10.432;2023-05-02T00:19:15;5.30;;;3.20;;
13171;SDS011;6651;53.200;10.432;2023-05-02T00:21:41;4.53;;;3.42;;
13171;SDS011;6651;53.200;10.432;2023-05-02T00:24:07;5.95;;;3.42;;
13171;SDS011;6651;53.200;10.432;2023-05-02T00:26:33;6.50;;;3.80;;
13171;SDS011;6651;53.200;10.432;2023-05-02T00:28:59;5.28;;;3.58;;
13171;SDS011;6651;53.200;10.432;2023-05-02T00:31:26;5.28;;;3.53;;
13171;SDS011;6651;53.200;10.432;2023-05-02T00:33:52;6.88;;;4.22;;
13171;SDS011;6651;53.200;10.432;2023-05-02T00:36:18;7.35;;;4.28;;
13171;SDS011;6651;53.200;10.432;2023-05-02T00:38:45;7.38;;;4.22;;
13171;SDS011;6651;53.200;10.432;2023-05-02T00:41:11;8.63;;;4.25;;
13171;SDS011;6651;53.200;10.432;2023-05-02T00:43:38;7.28;;;4.45;;
13171;SDS011;6651;53.200;10.432;2023-05-02T00:46:04;6.53;;;4.45;;
13171;SDS011;6651;53.200;10.432;2023-05-02T00:48:31;7.97;;;4.97;;
13171;SDS011;6651;53.200;10.432;2023-05-02T00:50:57;6.70;;;5.00;;
13171;SDS011;6651;53.200;10.432;2023-05-02T00:53:24;6.55;;;5.25;;
13171;SDS011;6651;53.200;10.432;2023-05-02T00:55:50;9.10;;;5.68;;
13171;SDS011;6651;53.200;10.432;2023-05-02T00:58:18;9.70;;;5.60;;
13171;SDS011;6651;53.200;10.432;2023-05-02T01:03:22;8.80;;;5.65;;
13171;SDS011;6651;53.200;10.432;2023-05-02T01:09:36;8.40;;;5.93;;
13171;SDS011;6651;53.200;10.432;2023-05-02T01:11:52;11.05;;;7.28;;
13171;SDS011;6651;53.200;10.432;2023-05-02T01:14:18;8.10;;;6.72;;
13171;SDS011;6651;53.200;10.432;2023-05-02T01:16:45;10.63;;;8.07;;
13171;SDS011;6651;53.200;10.432;2023-05-02T01:19:18;11.82;;;8.65;;
13171;SDS011;6651;53.200;10.432;2023-05-02T01:21:47;10.63;;;8.77;;
13171;SDS011;6651;53.200;10.432;2023-05-02T01:24:16;12.50;;;9.27;;
13171;SDS011;6651;53.200;10.432;2023-05-02T01:27:20;13.38;;;11.15;;
13171;SDS011;6651;53.200;10.432;2023-05-02T01:29:36;13.88;;;11.50;;
13171;SDS011;6651;53.200;10.432;2023-05-02T01:32:05;14.68;;;11.82;;
13171;SDS011;6651;53.200;10.432;2023-05-02T01:34:32;15.98;;;13.20;;
13171;SDS011;6651;53.200;10.432;2023-05-02T01:37:01;17.17;;;14.50;;
13171;SDS011;6651;53.200;10.432;2023-05-02T01:39:28;18.13;;;14.15;;
13171;SDS011;6651;53.200;10.432;2023-05-02T01:41:55;16.75;;;14.00;;
13171;SDS011;6651;53.200;10.432;2023-05-02T01:44:23;18.20;;;14.88;;
13171;SDS011;6651;53.200;10.432;2023-05-02T01:46:49;18.63;;;15.73;;
13171;SDS011;6651;53.200;10.432;2023-05-02T01:49:17;16.08;;;14.48;;
13171;SDS011;6651;53.200;10.432;2023-05-02T01:51:46;16.85;;;15.05;;
13171;SDS011;6651;53.200;10.432;2023-05-02T01:54:12;16.73;;;14.93;;
13171;SDS011;6651;53.200;10.432;2023-05-02T01:56:39;16.15;;;13.63;;
13171;SDS011;6651;53.200;10.432;2023-05-02T01:59:11;16.27;;;14.57;;
13171;SDS011;6651;53.200;10.432;2023-05-02T02:01:37;17.13;;;14.32;;
13171;SDS011;6651;53.200;10.432;2023-05-02T02:04:05;17.02;;;14.77;;
13171;SDS011;6651;53.200;10.432;2023-05-02T02:06:31;18.17;;;16.23;;
13171;SDS011;6651;53.200;10.432;2023-05-02T02:08:57;16.80;;;14.13;;
13171;SDS011;6651;53.200;10.432;2023-05-02T02:11:25;15.68;;;13.98;;
13171;SDS011;6651;53.200;10.432;2023-05-02T02:13:54;15.20;;;13.43;;
13171;SDS011;6651;53.200;10.432;2023-05-02T02:16:23;16.92;;;14.45;;
13171;SDS011;6651;53.200;10.432;2023-05-02T02:18:50;19.42;;;16.15;;
13171;SDS011;6651;53.200;10.432;2023-05-02T02:21:20;17.65;;;15.10;;
13171;SDS011;6651;53.200;10.432;2023-05-02T02:23:48;18.30;;;15.00;;
13171;SDS011;6651;53.200;10.432;2023-05-02T02:26:16;18.25;;;14.48;;
13171;SDS011;6651;53.200;10.432;2023-05-02T02:28:43;19.60;;;15.93;;
13171;SDS011;6651;53.200;10.432;2023-05-02T02:31:10;17.00;;;15.23;;
13171;SDS011;6651;53.200;10.432;2023-05-02T02:33:36;18.45;;;15.75;;
13171;SDS011;6651;53.200;10.432;2023-05-02T02:36:14;17.08;;;15.13;;
13171;SDS011;6651;53.200;10.432;2023-05-02T02:41:35;16.40;;;14.35;;
13171;SDS011;6651;53.200;10.432;2023-05-02T02:46:50;19.35;;;16.30;;
13171;SDS011;6651;53.200;10.432;2023-05-02T02:52:09;21.75;;;15.90;;
13171;SDS011;6651;53.200;10.432;2023-05-02T02:54:38;18.70;;;15.45;;
13171;SDS011;6651;53.200;10.432;2023-05-02T02:57:22;20.17;;;15.95;;
13171;SDS011;6651;53.200;10.432;2023-05-02T02:59:57;17.77;;;15.43;;
13171;SDS011;6651;53.200;10.432;2023-05-02T03:02:26;20.70;;;16.52;;
13171;SDS011;6651;53.200;10.432;2023-05-02T03:04:53;18.58;;;15.77;;
13171;SDS011;6651;53.200;10.432;2023-05-02T03:07:20;22.48;;;17.80;;
13171;SDS011;6651;53.200;10.432;2023-05-02T03:09:46;18.38;;;16.20;;
13171;SDS011;6651;53.200;10.432;2023-05-02T03:12:13;21.38;;;17.25;;
13171;SDS011;6651;53.200;10.432;2023-05-02T03:14:39;20.38;;;17.25;;
13171;SDS011;6651;53.200;10.432;2023-05-02T03:17:05;20.63;;;16.92;;
13171;SDS011;6651;53.200;10.432;2023-05-02T03:19:35;19.35;;;17.02;;
13171;SDS011;6651;53.200;10.432;2023-05-02T03:22:01;18.13;;;16.23;;
13171;SDS011;6651;53.200;10.432;2023-05-02T03:24:27;20.02;;;17.27;;
13171;SDS011;6651;53.200;10.432;2023-05-02T03:26:57;19.40;;;16.10;;
13171;SDS011;6651;53.200;10.432;2023-05-02T03:29:23;20.33;;;17.17;;
13171;SDS011;6651;53.200;10.432;2023-05-02T03:31:50;20.10;;;16.50;;
13171;SDS011;6651;53.200;10.432;2023-05-02T03:34:16;18.75;;;16.00;;
13171;SDS011;6651;53.200;10.432;2023-05-02T03:36:43;19.13;;;15.65;;
13171;SDS011;6651;53.200;10.432;2023-05-02T03:39:09;16.55;;;14.35;;
13171;SDS011;6651;53.200;10.432;2023-05-02T03:41:36;19.73;;;15.93;;
13171;SDS011;6651;53.200;10.432;2023-05-02T03:44:02;19.33;;;15.43;;
13171;SDS011;6651;53.200;10.432;2023-05-02T03:46:28;18.10;;;14.45;;
13171;SDS011;6651;53.200;10.432;2023-05-02T03:48:56;16.38;;;14.30;;
13171;SDS011;6651;53.200;10.432;2023-05-02T03:51:22;17.92;;;13.23;;
13171;SDS011;6651;53.200;10.432;2023-05-02T03:53:48;15.18;;;12.13;;
13171;SDS011;6651;53.200;10.432;2023-05-02T03:56:17;13.88;;;11.60;;
13171;SDS011;6651;53.200;10.432;2023-05-02T03:58:44;16.38;;;11.95;;
13171;SDS011;6651;53.200;10.432;2023-05-02T04:01:13;16.42;;;11.43;;
13171;SDS011;6651;53.200;10.432;2023-05-02T04:03:40;11.70;;;9.52;;
13171;SDS011;6651;53.200;10.432;2023-05-02T04:06:06;8.63;;;7.72;;
13171;SDS011;6651;53.200;10.432;2023-05-02T04:08:32;6.45;;;5.75;;
13171;SDS011;6651;53.200;10.432;2023-05-02T04:10:58;5.88;;;4.85;;
13171;SDS011;6651;53.200;10.432;2023-05-02T04:13:24;7.50;;;5.22;;
13171;SDS011;6651;53.200;10.432;2023-05-02T04:15:50;9.60;;;6.05;;
13171;SDS011;6651;53.200;10.432;2023-05-02T04:18:16;11.90;;;6.80;;
13171;SDS011;6651;53.200;10.432;2023-05-02T04:20:42;10.10;;;5.93;;
13171;SDS011;6651;53.200;10.432;2023-05-02T04:23:12;9.65;;;6.70;;
13171;SDS011;6651;53.200;10.432;2023-05-02T04:25:38;8.10;;;6.13;;
13171;SDS011;6651;53.200;10.432;2023-05-02T04:28:04;9.40;;;5.93;;
13171;SDS011;6651;53.200;10.432;2023-05-02T04:30:30;9.93;;;6.47;;
13171;SDS011;6651;53.200;10.432;2023-05-02T04:32:57;8.43;;;6.18;;
13171;SDS011;6651;53.200;10.432;2023-05-02T04:35:23;13.63;;;6.38;;
13171;SDS011;6651;53.200;10.432;2023-05-02T04:37:49;12.27;;;6.90;;
13171;SDS011;6651;53.200;10.432;2023-05-02T04:40:15;13.13;;;6.60;;
13171;SDS011;6651;53.200;10.432;2023-05-02T04:42:41;11.45;;;7.10;;
13171;SDS011;6651;53.200;10.432;2023-05-02T04:45:07;11.32;;;6.72;;
13171;SDS011;6651;53.200;10.432;2023-05-02T04:47:33;11.95;;;6.65;;
13171;SDS011;6651;53.200;10.432;2023-05-02T04:49:59;12.60;;;6.18;;
13171;SDS011;6651;53.200;10.432;2023-05-02T04:52:25;10.85;;;6.70;;
13171;SDS011;6651;53.200;10.432;2023-05-02T04:54:51;13.50;;;6.60;;
13171;SDS011;6651;53.200;10.432;2023-05-02T04:57:17;12.88;;;6.25;;
13171;SDS011;6651;53.200;10.432;2023-05-02T04:59:43;15.15;;;6.75;;
13171;SDS011;6651;53.200;10.432;2023-05-02T05:02:10;16.45;;;5.80;;
13171;SDS011;6651;53.200;10.432;2023-05-02T05:04:36;16.45;;;7.03;;
13171;SDS011;6651;53.200;10.432;2023-05-02T05:07:02;21.08;;;7.80;;
13171;SDS011;6651;53.200;10.432;2023-05-02T05:09:28;20.63;;;7.65;;
13171;SDS011;6651;53.200;10.432;2023-05-02T05:11:54;19.02;;;8.10;;
13171;SDS011;6651;53.200;10.432;2023-05-02T05:14:20;16.40;;;6.70;;
13171;SDS011;6651;53.200;10.432;2023-05-02T05:16:46;19.30;;;6.93;;
13171;SDS011;6651;53.200;10.432;2023-05-02T05:19:12;16.98;;;6.20;;
13171;SDS011;6651;53.200;10.432;2023-05-02T05:21:39;13.52;;;5.75;;
13171;SDS011;6651;53.200;10.432;2023-05-02T05:24:05;16.40;;;5.88;;
13171;SDS011;6651;53.200;10.432;2023-05-02T05:26:31;17.25;;;6.28;;
13171;SDS011;6651;53.200;10.432;2023-05-02T05:28:57;15.00;;;6.10;;
13171;SDS011;6651;53.200;10.432;2023-05-02T05:31:23;17.48;;;5.53;;
13171;SDS011;6651;53.200;10.432;2023-05-02T05:33:49;15.65;;;6.20;;
13171;SDS011;6651;53.200;10.432;2023-05-02T05:36:15;17.48;;;6.45;;
13171;SDS011;6651;53.200;10.432;2023-05-02T05:38:41;17.40;;;5.90;;
13171;SDS011;6651;53.200;10.432;2023-05-02T05:41:10;15.23;;;5.60;;
13171;SDS011;6651;53.200;10.432;2023-05-02T05:43:36;16.50;;;6.45;;
13171;SDS011;6651;53.200;10.432;2023-05-02T05:46:02;16.52;;;6.45;;
13171;SDS011;6651;53.200;10.432;2023-05-02T05:48:28;17.40;;;6.93;;
13171;SDS011;6651;53.200;10.432;2023-05-02T05:50:54;18.88;;;6.25;;
13171;SDS011;6651;53.200;10.432;2023-05-02T05:53:20;15.30;;;5.60;;
13171;SDS011;6651;53.200;10.432;2023-05-02T05:55:46;13.60;;;5.32;;
13171;SDS011;6651;53.200;10.432;2023-05-02T05:58:13;17.63;;;5.65;;
13171;SDS011;6651;53.200;10.432;2023-05-02T06:00:39;15.85;;;4.63;;
13171;SDS011;6651;53.200;10.432;2023-05-02T06:03:06;15.98;;;4.85;;
13171;SDS011;6651;53.200;10.432;2023-05-02T06:05:32;12.75;;;4.22;;
13171;SDS011;6651;53.200;10.432;2023-05-02T06:07:58;13.70;;;4.55;;
13171;SDS011;6651;53.200;10.432;2023-05-02T06:10:24;15.13;;;5.40;;
13171;SDS011;6651;53.200;10.432;2023-05-02T06:12:50;13.02;;;5.15;;
13171;SDS011;6651;53.200;10.432;2023-05-02T06:15:16;16.23;;;4.82;;
13171;SDS011;6651;53.200;10.432;2023-05-02T06:17:42;13.95;;;4.47;;
13171;SDS011;6651;53.200;10.432;2023-05-02T06:20:08;24.02;;;5.38;;
13171;SDS011;6651;53.200;10.432;2023-05-02T06:22:35;15.52;;;5.05;;
13171;SDS011;6651;53.200;10.432;2023-05-02T06:25:01;12.80;;;4.32;;
13171;SDS011;6651;53.200;10.432;2023-05-02T06:27:29;12.18;;;4.75;;
13171;SDS011;6651;53.200;10.432;2023-05-02T06:32:31;11.93;;;4.15;;
13171;SDS011;6651;53.200;10.432;2023-05-02T06:34:57;11.98;;;4.22;;
13171;SDS011;6651;53.200;10.432;2023-05-02T06:37:22;13.60;;;4.38;;
13171;SDS011;6651;53.200;10.432;2023-05-02T06:39:48;14.40;;;4.47;;
13171;SDS011;6651;53.200;10.432;2023-05-02T06:42:15;14.18;;;4.60;;
13171;SDS011;6651;53.200;10.432;2023-05-02T06:44:41;14.35;;;4.85;;
13171;SDS011;6651;53.200;10.432;2023-05-02T06:47:07;12.52;;;4.38;;
13171;SDS011;6651;53.200;10.432;2023-05-02T06:49:33;16.00;;;5.25;;
13171;SDS011;6651;53.200;10.432;2023-05-02T06:51:59;19.85;;;5.00;;
13171;SDS011;6651;53.200;10.432;2023-05-02T06:54:25;15.35;;;4.85;;
13171;SDS011;6651;53.200;10.432;2023-05-02T06:56:51;18.40;;;5.30;;
13171;SDS011;6651;53.200;10.432;2023-05-02T06:59:17;17.17;;;5.28;;
13171;SDS011;6651;53.200;10.432;2023-05-02T07:01:43;8.68;;;4.10;;
13171;SDS011;6651;53.200;10.432;2023-05-02T07:04:09;12.15;;;4.35;;
13171;SDS011;6651;53.200;10.432;2023-05-02T07:06:35;10.55;;;4.57;;
13171;SDS011;6651;53.200;10.432;2023-05-02T07:09:01;11.50;;;4.38;;
13171;SDS011;6651;53.200;10.432;2023-05-02T07:11:27;10.20;;;3.85;;
13171;SDS011;6651;53.200;10.432;2023-05-02T07:13:53;10.30;;;3.92;;
13171;SDS011;6651;53.200;10.432;2023-05-02T07:16:19;13.70;;;4.07;;
13171;SDS011;6651;53.200;10.432;2023-05-02T07:18:45;12.05;;;4.68;;
13171;SDS011;6651;53.200;10.432;2023-05-02T07:21:11;10.68;;;4.63;;
13171;SDS011;6651;53.200;10.432;2023-05-02T07:23:37;10.60;;;4.30;;
13171;SDS011;6651;53.200;10.432;2023-05-02T07:26:03;11.45;;;5.25;;
13171;SDS011;6651;53.200;10.432;2023-05-02T07:28:30;12.07;;;4.38;;
13171;SDS011;6651;53.200;10.432;2023-05-02T07:31:04;10.35;;;4.25;;
13171;SDS011;6651;53.200;10.432;2023-05-02T07:33:35;8.82;;;3.88;;
13171;SDS011;6651;53.200;10.432;2023-05-02T07:36:09;8.43;;;4.18;;
13171;SDS011;6651;53.200;10.432;2023-05-02T07:38:44;7.70;;;3.85;;
13171;SDS011;6651;53.200;10.432;2023-05-02T07:41:16;9.55;;;4.03;;
13171;SDS011;6651;53.200;10.432;2023-05-02T07:43:47;9.02;;;3.88;;
13171;SDS011;6651;53.200;10.432;2023-05-02T07:46:24;9.88;;;3.63;;
13171;SDS011;6651;53.200;10.432;2023-05-02T07:48:53;9.85;;;4.15;;
13171;SDS011;6651;53.200;10.432;2023-05-02T07:51:47;7.75;;;3.30;;
13171;SDS011;6651;53.200;10.432;2023-05-02T07:54:34;12.63;;;4.47;;
13171;SDS011;6651;53.200;10.432;2023-05-02T07:57:06;9.65;;;4.10;;
13171;SDS011;6651;53.200;10.432;2023-05-02T07:59:41;9.00;;;3.97;;
13171;SDS011;6651;53.200;10.432;2023-05-02T08:02:10;11.05;;;3.90;;
13171;SDS011;6651;53.200;10.432;2023-05-02T08:04:47;11.32;;;3.80;;
13171;SDS011;6651;53.200;10.432;2023-05-02T08:07:24;10.32;;;3.85;;
13171;SDS011;6651;53.200;10.432;2023-05-02T08:10:02;11.57;;;4.00;;
13171;SDS011;6651;53.200;10.432;2023-05-02T08:15:23;13.07;;;4.22;;
13171;SDS011;6651;53.200;10.432;2023-05-02T08:18:16;9.57;;;4.00;;
13171;SDS011;6651;53.200;10.432;2023-05-02T08:20:57;9.75;;;3.47;;
13171;SDS011;6651;53.200;10.432;2023-05-02T08:23:33;12.18;;;4.18;;
13171;SDS011;6651;53.200;10.432;2023-05-02T08:26:08;8.07;;;3.40;;
13171;SDS011;6651;53.200;10.432;2023-05-02T08:28:48;9.00;;;3.30;;
13171;SDS011;6651;53.200;10.432;2023-05-02T08:31:23;9.13;;;3.25;;
13171;SDS011;6651;53.200;10.432;2023-05-02T08:33:55;11.85;;;3.63;;
13171;SDS011;6651;53.200;10.432;2023-05-02T08:36:30;7.63;;;3.10;;
13171;SDS011;6651;53.200;10.432;2023-05-02T08:39:05;7.20;;;3.17;;
13171;SDS011;6651;53.200;10.432;2023-05-02T08:41:46;10.20;;;3.20;;
13171;SDS011;6651;53.200;10.432;2023-05-02T08:44:12;5.40;;;2.33;;
13171;SDS011;6651;53.200;10.432;2023-05-02T08:46:47;5.93;;;2.53;;
13171;SDS011;6651;53.200;10.432;2023-05-02T08:49:14;6.95;;;2.72;;
13171;SDS011;6651;53.200;10.432;2023-05-02T08:51:44;9.07;;;2.72;;
13171;SDS011;6651;53.200;10.432;2023-05-02T08:54:17;7.38;;;2.75;;
13171;SDS011;6651;53.200;10.432;2023-05-02T08:56:45;5.60;;;2.40;;
13171;SDS011;6651;53.200;10.432;2023-05-02T08:59:14;4.30;;;2.47;;
13171;SDS011;6651;53.200;10.432;2023-05-02T09:01:40;5.78;;;2.72;;
13171;SDS011;6651;53.200;10.432;2023-05-02T09:04:10;9.60;;;3.17;;
13171;SDS011;6651;53.200;10.432;2023-05-02T09:06:39;5.82;;;2.60;;
13171;SDS011;6651;53.200;10.432;2023-05-02T09:09:09;6.22;;;2.58;;
13171;SDS011;6651;53.200;10.432;2023-05-02T09:11:45;7.55;;;2.70;;
13171;SDS011;6651;53.200;10.432;2023-05-02T09:14:15;6.22;;;2.45;;
13171;SDS011;6651;53.200;10.432;2023-05-02T09:16:42;7.97;;;2.70;;
13171;SDS011;6651;53.200;10.432;2023-05-02T09:19:11;6.90;;;2.92;;
13171;SDS011;6651;53.200;10.432;2023-05-02T09:21:58;10.50;;;2.70;;
13171;SDS011;6651;53.200;10.432;2023-05-02T09:24:25;6.20;;;2.80;;
13171;SDS011;6651;53.200;10.432;2023-05-02T09:26:58;4.53;;;2.30;;
13171;SDS011;6651;53.200;10.432;2023-05-02T09:29:25;7.50;;;2.60;;
13171;SDS011;6651;53.200;10.432;2023-05-02T09:31:59;5.78;;;2.40;;
13171;SDS011;6651;53.200;10.432;2023-05-02T09:34:25;7.57;;;3.47;;
13171;SDS011;6651;53.200;10.432;2023-05-02T09:36:55;7.25;;;2.88;;
13171;SDS011;6651;53.200;10.432;2023-05-02T09:41:48;7.85;;;3.42;;
13171;SDS011;6651;53.200;10.432;2023-05-02T09:44:18;4.93;;;2.47;;
13171;SDS011;6651;53.200;10.432;2023-05-02T09:46:46;7.72;;;2.65;;
13171;SDS011;6651;53.200;10.432;2023-05-02T09:49:12;6.25;;;2.70;;
13171;SDS011;6651;53.200;10.432;2023-05-02T09:51:39;6.97;;;2.60;;
13171;SDS011;6651;53.200;10.432;2023-05-02T09:54:07;6.70;;;2.40;;
13171;SDS011;6651;53.200;10.432;2023-05-02T09:59:21;6.90;;;2.30;;
13171;SDS011;6651;53.200;10.432;2023-05-02T10:01:54;6.88;;;2.40;;
13171;SDS011;6651;53.200;10.432;2023-05-02T10:04:21;6.75;;;2.60;;
13171;SDS011;6651;53.200;10.432;2023-05-02T10:06:47;6.07;;;2.65;;
13171;SDS011;6651;53.200;10.432;2023-05-02T10:09:15;5.97;;;2.47;;
13171;SDS011;6651;53.200;10.432;2023-05-02T10:12:01;7.45;;;2.42;;
13171;SDS011;6651;53.200;10.432;2023-05-02T10:14:34;6.28;;;2.55;;
13171;SDS011;6651;53.200;10.432;2023-05-02T10:17:10;7.43;;;2.40;;
13171;SDS011;6651;53.200;10.432;2023-05-02T10:22:06;5.68;;;2.47;;
13171;SDS011;6651;53.200;10.432;2023-05-02T10:24:43;6.03;;;2.40;;
13171;SDS011;6651;53.200;10.432;2023-05-02T10:27:20;5.30;;;2.20;;
13171;SDS011;6651;53.200;10.432;2023-05-02T10:29:46;5.13;;;2.30;;
13171;SDS011;6651;53.200;10.432;2023-05-02T10:32:23;6.82;;;2.40;;
13171;SDS011;6651;53.200;10.432;2023-05-02T10:35:01;5.82;;;2.10;;
13171;SDS011;6651;53.200;10.432;2023-05-02T10:37:28;5.72;;;2.15;;
13171;SDS011;6651;53.200;10.432;2023-05-02T10:40:02;5.60;;;2.10;;
13171;SDS011;6651;53.200;10.432;2023-05-02T10:42:39;3.28;;;1.80;;
13171;SDS011;6651;53.200;10.432;2023-05-02T10:45:28;4.47;;;1.88;;
13171;SDS011;6651;53.200;10.432;2023-05-02T10:51:08;6.75;;;2.20;;
13171;SDS011;6651;53.200;10.432;2023-05-02T10:53:38;2.83;;;1.70;;
13171;SDS011;6651;53.200;10.432;2023-05-02T10:56:20;5.45;;;2.08;;
13171;SDS011;6651;53.200;10.432;2023-05-02T10:59:24;4.60;;;1.88;;
13171;SDS011;6651;53.200;10.432;2023-05-02T11:01:44;3.65;;;2.00;;
13171;SDS011;6651;53.200;10.432;2023-05-02T11:04:15;4.57;;;2.05;;
13171;SDS011;6651;53.200;10.432;2023-05-02T11:09:36;2.85;;;1.60;;
13171;SDS011;6651;53.200;10.432;2023-05-02T11:12:08;3.80;;;1.83;;
13171;SDS011;6651;53.200;10.432;2023-05-02T11:22:33;5.85;;;2.00;;
13171;SDS011;6651;53.200;10.432;2023-05-02T11:25:27;4.38;;;2.10;;
13171;SDS011;6651;53.200;10.432;2023-05-02T11:28:04;2.75;;;1.80;;
13171;SDS011;6651;53.200;10.432;2023-05-02T11:30:39;3.05;;;2.00;;
13171;SDS011;6651;53.200;10.432;2023-05-02T11:35:44;4.65;;;1.95;;
13171;SDS011;6651;53.200;10.432;2023-05-02T11:38:14;3.33;;;1.90;;
13171;SDS011;6651;53.200;10.432;2023-05-02T11:40:53;5.80;;;1.92;;
13171;SDS011;6651;53.200;10.432;2023-05-02T11:43:25;4.05;;;2.08;;
13171;SDS011;6651;53.200;10.432;2023-05-02T11:46:00;4.88;;;1.98;;
13171;SDS011;6651;53.200;10.432;2023-05-02T11:48:32;3.92;;;1.80;;
13171;SDS011;6651;53.200;10.432;2023-05-02T11:51:00;4.00;;;1.80;;
13171;SDS011;6651;53.200;10.432;2023-05-02T11:53:29;3.05;;;1.55;;
13171;SDS011;6651;53.200;10.432;2023-05-02T11:55:58;4.25;;;1.90;;
13171;SDS011;6651;53.200;10.432;2023-05-02T11:58:26;3.83;;;1.90;;
13171;SDS011;6651;53.200;10.432;2023-05-02T12:01:09;4.63;;;1.88;;
13171;SDS011;6651;53.200;10.432;2023-05-02T12:03:37;5.50;;;2.22;;
13171;SDS011;6651;53.200;10.432;2023-05-02T12:06:36;3.85;;;1.80;;
13171;SDS011;6651;53.200;10.432;2023-05-02T12:09:05;3.65;;;1.80;;
13171;SDS011;6651;53.200;10.432;2023-05-02T12:11:32;3.30;;;1.67;;
13171;SDS011;6651;53.200;10.432;2023-05-02T12:14:02;3.35;;;1.75;;
13171;SDS011;6651;53.200;10.432;2023-05-02T12:16:29;4.47;;;1.77;;
13171;SDS011;6651;53.200;10.432;2023-05-02T12:18:57;3.97;;;1.90;;
13171;SDS011;6651;53.200;10.432;2023-05-02T12:21:40;3.63;;;1.92;;
13171;SDS011;6651;53.200;10.432;2023-05-02T12:24:06;2.47;;;1.50;;
13171;SDS011;6651;53.200;10.432;2023-05-02T12:26:34;5.25;;;2.00;;
13171;SDS011;6651;53.200;10.432;2023-05-02T12:29:01;3.97;;;1.80;;
13171;SDS011;6651;53.200;10.432;2023-05-02T12:31:30;4.45;;;1.95;;
13171;SDS011;6651;53.200;10.432;2023-05-02T12:33:59;5.15;;;1.92;;
13171;SDS011;6651;53.200;10.432;2023-05-02T12:36:25;4.35;;;2.00;;
13171;SDS011;6651;53.200;10.432;2023-05-02T12:38:57;2.42;;;1.52;;
13171;SDS011;6651;53.200;10.432;2023-05-02T12:41:36;4.22;;;2.10;;
13171;SDS011;6651;53.200;10.432;2023-05-02T12:44:23;3.15;;;1.60;;
13171;SDS011;6651;53.200;10.432;2023-05-02T12:47:00;3.30;;;1.83;;
13171;SDS011;6651;53.200;10.432;2023-05-02T12:49:55;4.22;;;1.80;;
13171;SDS011;6651;53.200;10.432;2023-05-02T12:55:19;4.10;;;1.80;;
13171;SDS011;6651;53.200;10.432;2023-05-02T12:58:03;4.25;;;1.67;;
13171;SDS011;6651;53.200;10.432;2023-05-02T13:00:41;2.22;;;1.45;;
13171;SDS011;6651;53.200;10.432;2023-05-02T13:03:09;2.60;;;1.40;;
13171;SDS011;6651;53.200;10.432;2023-05-02T13:05:55;3.35;;;1.50;;
13171;SDS011;6651;53.200;10.432;2023-05-02T13:11:41;6.10;;;2.03;;
13171;SDS011;6651;53.200;10.432;2023-05-02T13:14:12;5.65;;;1.90;;
13171;SDS011;6651;53.200;10.432;2023-05-02T13:19:32;3.55;;;1.88;;
13171;SDS011;6651;53.200;10.432;2023-05-02T13:22:14;4.88;;;1.95;;
13171;SDS011;6651;53.200;10.432;2023-05-02T13:24:46;6.97;;;1.98;;
13171;SDS011;6651;53.200;10.432;2023-05-02T13:27:24;4.85;;;1.90;;
13171;SDS011;6651;53.200;10.432;2023-05-02T13:30:00;3.97;;;1.90;;
13171;SDS011;6651;53.200;10.432;2023-05-02T13:32:50;4.32;;;1.80;;
13171;SDS011;6651;53.200;10.432;2023-05-02T13:38:44;2.67;;;1.80;;
13171;SDS011;6651;53.200;10.432;2023-05-02T13:41:12;5.75;;;2.15;;
13171;SDS011;6651;53.200;10.432;2023-05-02T13:44:02;3.10;;;1.38;;
13171;SDS011;6651;53.200;10.432;2023-05-02T13:46:34;4.93;;;1.60;;
13171;SDS011;6651;53.200;10.432;2023-05-02T13:49:21;3.38;;;1.95;;
13171;SDS011;6651;53.200;10.432;2023-05-02T13:51:54;4.25;;;1.52;;
13171;SDS011;6651;53.200;10.432;2023-05-02T13:54:22;3.15;;;1.80;;
13171;SDS011;6651;53.200;10.432;2023-05-02T13:56:51;2.42;;;1.50;;
13171;SDS011;6651;53.200;10.432;2023-05-02T13:59:20;4.53;;;1.60;;
13171;SDS011;6651;53.200;10.432;2023-05-02T14:01:49;4.60;;;1.83;;
13171;SDS011;6651;53.200;10.432;2023-05-02T14:04:20;4.50;;;1.88;;
13171;SDS011;6651;53.200;10.432;2023-05-02T14:06:46;4.78;;;1.98;;
13171;SDS011;6651;53.200;10.432;2023-05-02T14:09:15;4.03;;;1.70;;
13171;SDS011;6651;53.200;10.432;2023-05-02T14:11:44;3.72;;;1.73;;
13171;SDS011;6651;53.200;10.432;2023-05-02T14:14:13;4.65;;;1.85;;
13171;SDS011;6651;53.200;10.432;2023-05-02T14:16:39;4.43;;;1.90;;
13171;SDS011;6651;53.200;10.432;2023-05-02T14:19:05;2.97;;;1.80;;
13171;SDS011;6651;53.200;10.432;2023-05-02T14:21:31;4.57;;;2.00;;
13171;SDS011;6651;53.200;10.432;2023-05-02T14:23:57;3.13;;;1.45;;
13171;SDS011;6651;53.200;10.432;2023-05-02T14:26:26;4.82;;;2.38;;
13171;SDS011;6651;53.200;10.432;2023-05-02T14:28:52;3.30;;;1.70;;
13171;SDS011;6651;53.200;10.432;2023-05-02T14:31:18;3.03;;;1.70;;
13171;SDS011;6651;53.200;10.432;2023-05-02T14:33:47;4.07;;;1.77;;
13171;SDS011;6651;53.200;10.432;2023-05-02T14:36:13;3.63;;;2.20;;
13171;SDS011;6651;53.200;10.432;2023-05-02T14:38:39;5.32;;;1.92;;
13171;SDS011;6651;53.200;10.432;2023-05-02T14:41:05;3.88;;;1.80;;
13171;SDS011;6651;53.200;10.432;2023-05-02T14:43:37;3.63;;;1.92;;
13171;SDS011;6651;53.200;10.432;2023-05-02T14:46:06;5.70;;;2.03;;
13171;SDS011;6651;53.200;10.432;2023-05-02T14:48:32;2.63;;;1.75;;
13171;SDS011;6651;53.200;10.432;2023-05-02T14:51:02;3.33;;;1.80;;
13171;SDS011;6651;53.200;10.432;2023-05-02T14:53:28;4.03;;;1.85;;
13171;SDS011;6651;53.200;10.432;2023-05-02T14:55:56;2.42;;;1.80;;
13171;SDS011;6651;53.200;10.432;2023-05-02T14:58:22;3.95;;;2.10;;
13171;SDS011;6651;53.200;10.432;2023-05-02T15:00:48;4.82;;;2.08;;
13171;SDS011;6651;53.200;10.432;2023-05-02T15:03:14;5.22;;;1.75;;
13171;SDS011;6651;53.200;10.432;2023-05-02T15:05:58;3.45;;;1.80;;
13171;SDS011;6651;53.200;10.432;2023-05-02T15:08:30;4.90;;;1.80;;
13171;SDS011;6651;53.200;10.432;2023-05-02T15:10:56;4.50;;;1.73;;
13171;SDS011;6651;53.200;10.432;2023-05-02T15:13:22;5.88;;;2.00;;
13171;SDS011;6651;53.200;10.432;2023-05-02T15:15:48;3.65;;;1.75;;
13171;SDS011;6651;53.200;10.432;2023-05-02T15:18:14;4.43;;;1.80;;
13171;SDS011;6651;53.200;10.432;2023-05-02T15:20:40;3.33;;;1.73;;
13171;SDS011;6651;53.200;10.432;2023-05-02T15:23:08;2.85;;;2.00;;
13171;SDS011;6651;53.200;10.432;2023-05-02T15:25:34;3.30;;;1.60;;
13171;SDS011;6651;53.200;10.432;2023-05-02T15:28:00;3.78;;;1.80;;
13171;SDS011;6651;53.200;10.432;2023-05-02T15:30:27;3.53;;;1.50;;
13171;SDS011;6651;53.200;10.432;2023-05-02T15:32:53;3.13;;;1.80;;
13171;SDS011;6651;53.200;10.432;2023-05-02T15:35:19;3.22;;;1.60;;
13171;SDS011;6651;53.200;10.432;2023-05-02T15:37:45;3.10;;;1.77;;
13171;SDS011;6651;53.200;10.432;2023-05-02T15:40:11;3.28;;;1.83;;
13171;SDS011;6651;53.200;10.432;2023-05-02T15:42:38;3.72;;;1.50;;
13171;SDS011;6651;53.200;10.432;2023-05-02T15:45:04;1.88;;;1.40;;
13171;SDS011;6651;53.200;10.432;2023-05-02T15:47:31;1.63;;;1.52;;
13171;SDS011;6651;53.200;10.432;2023-05-02T15:49:57;4.65;;;1.80;;
13171;SDS011;6651;53.200;10.432;2023-05-02T15:52:23;6.82;;;2.03;;